Time;durP1;ratioP1;P1;durP2;ratioP2;P2;SDS_P1;SDS_P2;PMS_P1;PMS_P2;Temp;Humidity;BMP_temperature;BMP_pressure;BME280_temperature;BME280_humidity;BME280_pressure;Samples;Min_cycle;Max_cycle;Signal;HPM_P1;HPM_P2
2023/08/21 00:01:22;;;;;;;6.28;6.18;;;20.60;99.90;;;;;;4177197;28;20056;-80
2023/08/21 00:03:42;;;;;;;7.00;6.60;;;20.60;99.90;;;;;;4178921;28;20147;-80
2023/08/21 00:06:02;;;;;;;6.53;6.07;;;20.60;99.90;;;;;;4189601;28;20143;-82
2023/08/21 00:08:23;;;;;;;7.50;7.30;;;20.60;99.90;;;;;;4178351;28;20056;-82
2023/08/21 00:10:42;;;;;;;6.20;6.03;;;20.50;99.90;;;;;;4182906;28;20103;-83
2023/08/21 00:13:03;;;;;;;7.35;7.05;;;20.40;99.90;;;;;;4180649;28;20064;-83
2023/08/21 00:15:23;;;;;;;6.75;6.55;;;20.40;99.90;;;;;;4179458;28;20078;-83
2023/08/21 00:17:42;;;;;;;6.43;6.22;;;20.40;99.90;;;;;;4180766;28;20060;-83
2023/08/21 00:20:03;;;;;;;6.13;5.75;;;20.40;99.90;;;;;;4179791;28;20048;-83
2023/08/21 00:22:23;;;;;;;6.55;6.40;;;20.40;99.90;;;;;;4180709;28;20044;-83
2023/08/21 00:24:43;;;;;;;6.82;6.55;;;20.50;99.90;;;;;;4186132;28;20051;-83
2023/08/21 00:27:03;;;;;;;6.15;5.95;;;20.40;99.90;;;;;;4180268;28;20240;-83
2023/08/21 00:29:23;;;;;;;7.65;7.35;;;20.40;99.90;;;;;;4177131;28;20398;-83
2023/08/21 00:31:43;;;;;;;7.63;7.00;;;20.30;99.90;;;;;;4177220;28;20044;-83
2023/08/21 00:34:04;;;;;;;7.05;6.95;;;20.30;99.90;;;;;;4182285;28;20070;-83
2023/08/21 00:36:24;;;;;;;7.45;7.25;;;20.30;99.90;;;;;;4176993;28;20056;-83
2023/08/21 00:38:44;;;;;;;7.03;6.82;;;20.20;99.90;;;;;;4180055;28;20052;-83
2023/08/21 00:41:03;;;;;;;8.10;7.85;;;20.20;99.90;;;;;;4180365;28;20060;-83
2023/08/21 00:43:23;;;;;;;6.15;6.05;;;20.20;99.90;;;;;;4192192;28;20095;-83
2023/08/21 00:45:45;;;;;;;7.55;7.28;;;20.10;99.90;;;;;;4179202;28;20467;-83
2023/08/21 00:48:05;;;;;;;7.57;7.28;;;20.10;99.90;;;;;;4177210;28;20064;-83
2023/08/21 00:50:25;;;;;;;7.65;7.45;;;20.00;99.90;;;;;;4179157;28;20233;-83
2023/08/21 00:52:46;;;;;;;7.97;7.78;;;20.00;99.90;;;;;;4181315;28;20248;-83
2023/08/21 00:55:07;;;;;;;7.70;7.38;;;20.00;99.90;;;;;;4175723;28;20140;-83
2023/08/21 00:57:27;;;;;;;8.55;8.25;;;20.00;99.90;;;;;;4175441;28;20068;-83
2023/08/21 00:59:48;;;;;;;7.50;7.30;;;19.90;99.90;;;;;;4172729;28;20052;-83
2023/08/21 01:02:08;;;;;;;7.15;6.90;;;19.80;99.90;;;;;;4180671;28;20071;-82
2023/08/21 01:04:28;;;;;;;8.35;7.85;;;19.80;99.90;;;;;;4191127;22;20068;-57
2023/08/21 01:06:49;;;;;;;8.95;8.70;;;19.80;99.90;;;;;;4176642;28;20048;-57
2023/08/21 01:09:24;;;;;;;8.95;8.27;;;19.90;99.90;;;;;;4181442;28;20109;-57
2023/08/21 01:12:08;;;;;;;8.32;8.10;;;19.90;99.90;;;;;;4174563;28;20080;-57
2023/08/21 01:14:43;;;;;;;8.10;7.80;;;19.90;99.90;;;;;;4179682;28;20071;-57
2023/08/21 01:17:05;;;;;;;7.05;6.85;;;19.80;99.90;;;;;;4179059;28;20144;-57
2023/08/21 01:19:48;;;;;;;8.15;7.53;;;19.70;99.90;;;;;;4178434;28;20076;-57
2023/08/21 01:22:08;;;;;;;8.63;8.15;;;19.70;99.90;;;;;;4178451;28;20248;-57
2023/08/21 01:24:28;;;;;;;8.45;8.15;;;19.70;99.90;;;;;;4179741;28;20249;-57
2023/08/21 01:26:47;;;;;;;8.13;7.80;;;19.60;99.90;;;;;;4179806;28;20048;-57
2023/08/21 01:29:08;;;;;;;7.63;7.50;;;19.60;99.90;;;;;;4178353;28;20502;-57
2023/08/21 01:31:33;;;;;;;7.72;7.53;;;19.40;99.90;;;;;;4182971;28;20112;-56
2023/08/21 01:34:01;;;;;;;8.10;7.72;;;19.40;99.90;;;;;;4176909;28;20091;-57
2023/08/21 01:36:21;;;;;;;8.18;7.88;;;19.40;99.90;;;;;;4179100;28;20098;-57
2023/08/21 01:38:41;;;;;;;7.97;7.68;;;19.40;99.90;;;;;;4182586;28;20060;-57
2023/08/21 01:41:02;;;;;;;9.07;8.68;;;19.40;99.90;;;;;;4186996;28;20048;-57
2023/08/21 01:43:22;;;;;;;7.05;6.75;;;19.60;99.90;;;;;;4198458;28;20052;-57
2023/08/21 01:45:42;;;;;;;7.43;7.32;;;19.60;99.90;;;;;;4197839;28;20059;-57
2023/08/21 01:48:02;;;;;;;7.38;7.20;;;19.70;99.90;;;;;;4197128;28;20051;-57
2023/08/21 01:50:22;;;;;;;6.60;6.47;;;19.70;99.90;;;;;;4197319;28;20371;-57
2023/08/21 01:52:42;;;;;;;7.47;7.07;;;19.70;99.90;;;;;;4196884;28;20395;-57
2023/08/21 01:55:03;;;;;;;7.65;7.35;;;19.80;99.90;;;;;;4198730;28;20067;-57
2023/08/21 01:57:23;;;;;;;7.00;6.47;;;19.80;99.90;;;;;;4195444;28;20056;-57
2023/08/21 01:59:44;;;;;;;8.38;8.02;;;19.80;99.90;;;;;;4194653;28;20278;-57
2023/08/21 02:02:03;;;;;;;7.53;7.28;;;19.80;99.90;;;;;;4201619;28;20075;-57
2023/08/21 02:04:23;;;;;;;8.02;7.82;;;19.60;99.90;;;;;;4199073;28;20043;-57
2023/08/21 02:06:44;;;;;;;7.50;7.25;;;19.70;99.90;;;;;;4196587;28;20082;-57
2023/08/21 02:09:03;;;;;;;8.18;7.88;;;19.60;99.90;;;;;;4197254;28;20043;-57
2023/08/21 02:11:24;;;;;;;7.68;7.47;;;19.50;99.90;;;;;;4198636;28;20363;-56
2023/08/21 02:13:44;;;;;;;7.45;7.20;;;19.40;99.90;;;;;;4198599;28;20244;-57
2023/08/21 02:16:04;;;;;;;8.15;7.68;;;19.30;99.90;;;;;;4196984;28;20101;-57
2023/08/21 02:18:24;;;;;;;8.10;7.90;;;19.40;99.90;;;;;;4197805;28;20076;-57
2023/08/21 02:20:44;;;;;;;8.10;7.93;;;19.50;99.90;;;;;;4196013;28;20060;-56
2023/08/21 02:23:04;;;;;;;7.97;7.68;;;19.40;99.90;;;;;;4195973;28;20139;-57
2023/08/21 02:25:24;;;;;;;7.57;7.28;;;19.20;99.90;;;;;;4200917;28;20055;-57
2023/08/21 02:27:44;;;;;;;8.60;8.40;;;19.30;99.90;;;;;;4193701;28;20159;-57
2023/08/21 02:30:05;;;;;;;8.48;8.18;;;19.30;99.90;;;;;;4196336;28;20058;-57
2023/08/21 02:32:25;;;;;;;8.35;8.02;;;19.40;99.90;;;;;;4195713;28;20393;-57
2023/08/21 02:34:44;;;;;;;8.98;8.68;;;19.40;99.90;;;;;;4194161;28;20054;-57
2023/08/21 02:37:04;;;;;;;8.55;8.15;;;19.20;99.90;;;;;;4196948;28;20112;-57
2023/08/21 02:39:24;;;;;;;8.15;7.90;;;19.40;99.90;;;;;;4197282;28;20094;-56
2023/08/21 02:41:44;;;;;;;8.52;8.25;;;19.40;99.90;;;;;;4197208;28;20072;-56
2023/08/21 02:44:03;;;;;;;9.32;8.73;;;19.20;99.90;;;;;;4197364;28;20059;-57
2023/08/21 02:46:23;;;;;;;8.90;8.70;;;19.10;99.90;;;;;;4197297;28;20059;-57
2023/08/21 02:48:43;;;;;;;9.10;8.50;;;19.30;99.90;;;;;;4198715;28;20051;-56
2023/08/21 02:51:03;;;;;;;9.73;8.80;;;19.30;99.90;;;;;;4194906;28;20056;-58
2023/08/21 02:53:25;;;;;;;9.35;8.95;;;19.30;99.90;;;;;;4196463;28;20395;-57
2023/08/21 02:55:46;;;;;;;9.80;9.50;;;19.20;99.90;;;;;;4196101;28;20102;-57
2023/08/21 02:58:06;;;;;;;8.63;8.23;;;18.90;99.90;;;;;;4192846;28;20239;-57
2023/08/21 03:00:26;;;;;;;9.32;8.95;;;19.00;99.90;;;;;;4196118;28;20048;-57
2023/08/21 03:02:46;;;;;;;9.40;8.90;;;19.00;99.90;;;;;;4195341;28;20054;-57
2023/08/21 03:05:08;;;;;;;8.48;8.15;;;18.90;99.90;;;;;;4196751;28;20143;-57
2023/08/21 03:07:29;;;;;;;8.65;7.93;;;18.90;99.90;;;;;;4196068;28;20043;-57
2023/08/21 03:09:50;;;;;;;9.60;8.90;;;19.00;99.90;;;;;;4196711;28;20085;-56
2023/08/21 03:12:10;;;;;;;7.88;7.68;;;19.00;99.90;;;;;;4195267;28;20429;-57
2023/08/21 03:14:30;;;;;;;8.57;8.18;;;19.00;99.90;;;;;;4197192;28;20071;-57
2023/08/21 03:16:50;;;;;;;9.25;8.70;;;19.00;99.90;;;;;;4195514;28;20059;-56
2023/08/21 03:19:10;;;;;;;9.95;9.57;;;18.90;99.90;;;;;;4189331;28;20291;-57
2023/08/21 03:21:31;;;;;;;9.27;8.88;;;18.80;99.90;;;;;;4191662;28;20116;-57
2023/08/21 03:23:59;;;;;;;9.75;9.48;;;18.80;99.90;;;;;;4197897;28;20175;-57
2023/08/21 03:26:22;;;;;;;9.38;9.07;;;18.60;99.90;;;;;;4193885;28;20047;-57
2023/08/21 03:28:42;;;;;;;9.00;8.57;;;18.70;99.90;;;;;;4196948;28;20240;-57
2023/08/21 03:31:02;;;;;;;8.55;8.35;;;18.80;99.90;;;;;;4197093;28;20075;-57
2023/08/21 03:33:22;;;;;;;9.98;9.57;;;18.80;99.90;;;;;;4195880;28;20325;-56
2023/08/21 03:35:42;;;;;;;9.32;8.93;;;18.60;99.90;;;;;;4198268;28;20059;-57
2023/08/21 03:38:02;;;;;;;10.27;9.70;;;18.70;99.90;;;;;;4196773;28;20063;-57
2023/08/21 03:40:22;;;;;;;9.52;9.05;;;18.80;99.90;;;;;;4196675;28;20370;-57
2023/08/21 03:42:43;;;;;;;10.25;9.65;;;18.80;99.90;;;;;;4196726;28;20054;-57
2023/08/21 03:45:04;;;;;;;10.55;9.98;;;18.80;99.90;;;;;;4196066;28;20366;-57
2023/08/21 03:47:24;;;;;;;9.43;8.93;;;18.50;99.90;;;;;;4198763;28;20075;-57
2023/08/21 03:49:45;;;;;;;8.85;8.40;;;18.50;99.90;;;;;;4191661;28;20042;-57
2023/08/21 03:52:05;;;;;;;8.68;8.45;;;18.60;99.90;;;;;;4194497;28;20042;-57
2023/08/21 03:54:24;;;;;;;9.55;8.77;;;18.80;99.90;;;;;;4197282;28;20048;-57
2023/08/21 03:56:44;;;;;;;9.10;8.52;;;19.00;99.90;;;;;;4194153;28;20046;-57
2023/08/21 03:59:04;;;;;;;11.13;10.23;;;19.00;99.90;;;;;;4196941;28;20246;-57
2023/08/21 04:01:24;;;;;;;8.10;7.82;;;19.00;99.90;;;;;;4197997;28;20050;-56
2023/08/21 04:03:44;;;;;;;9.38;8.98;;;19.00;99.90;;;;;;4201508;28;20483;-57
2023/08/21 04:06:04;;;;;;;9.93;9.40;;;19.10;99.90;;;;;;4197408;28;20402;-57
2023/08/21 04:08:24;;;;;;;9.05;8.77;;;19.10;99.90;;;;;;4197721;28;20229;-57
2023/08/21 04:10:44;;;;;;;8.50;8.30;;;19.20;99.90;;;;;;4196896;28;20060;-56
2023/08/21 04:13:04;;;;;;;9.65;9.02;;;19.20;99.90;;;;;;4196340;28;20051;-56
2023/08/21 04:15:24;;;;;;;9.10;8.77;;;19.10;99.90;;;;;;4193214;28;20060;-56
2023/08/21 04:17:44;;;;;;;8.75;8.48;;;19.20;99.90;;;;;;4198069;28;20043;-56
2023/08/21 04:20:05;;;;;;;8.43;8.07;;;19.20;99.90;;;;;;4192012;28;20079;-56
2023/08/21 04:22:25;;;;;;;8.38;8.18;;;19.20;99.90;;;;;;4197389;28;20154;-57
2023/08/21 04:24:45;;;;;;;9.25;8.30;;;19.20;99.90;;;;;;4198960;28;20055;-56
2023/08/21 04:27:05;;;;;;;8.23;7.82;;;19.20;99.90;;;;;;4195840;28;20248;-57
2023/08/21 04:29:25;;;;;;;9.00;8.80;;;19.20;99.90;;;;;;4198129;28;20117;-57
2023/08/21 04:31:45;;;;;;;7.80;7.30;;;19.20;99.90;;;;;;4197866;28;20112;-57
2023/08/21 04:34:06;;;;;;;7.85;7.65;;;19.30;99.90;;;;;;4196378;28;20421;-57
2023/08/21 04:36:26;;;;;;;9.25;8.95;;;19.20;99.90;;;;;;4200136;28;20098;-60
2023/08/21 04:38:46;;;;;;;9.05;8.82;;;19.20;99.90;;;;;;4195941;28;20287;-59
2023/08/21 04:41:07;;;;;;;8.05;7.53;;;19.20;99.90;;;;;;4195314;28;20084;-59
2023/08/21 04:43:27;;;;;;;8.70;8.43;;;19.20;99.90;;;;;;4193085;28;20084;-59
2023/08/21 04:45:52;;;;;;;9.38;9.02;;;19.30;99.90;;;;;;4194721;28;20048;-59
2023/08/21 04:48:12;;;;;;;8.35;8.15;;;19.30;99.90;;;;;;4194028;28;20065;-59
2023/08/21 04:50:33;;;;;;;8.43;8.10;;;19.30;99.90;;;;;;4192784;28;20063;-59
2023/08/21 04:52:53;;;;;;;7.85;7.57;;;19.30;99.90;;;;;;4193452;28;20044;-59
2023/08/21 04:55:12;;;;;;;7.13;6.93;;;19.50;99.90;;;;;;4191408;28;20052;-59
2023/08/21 04:57:33;;;;;;;7.88;7.30;;;19.60;99.90;;;;;;4195967;28;20112;-59
2023/08/21 04:59:53;;;;;;;8.00;7.80;;;19.60;99.90;;;;;;4201378;28;20071;-59
2023/08/21 05:02:13;;;;;;;8.07;7.70;;;19.70;99.90;;;;;;4196241;28;20097;-59
2023/08/21 05:04:36;;;;;;;7.80;7.35;;;19.70;99.90;;;;;;4198200;28;20279;-59
2023/08/21 05:06:56;;;;;;;8.77;8.38;;;19.70;99.90;;;;;;4198568;28;20075;-59
2023/08/21 05:09:15;;;;;;;7.72;7.55;;;20.30;99.90;;;;;;4196515;28;20055;-59
2023/08/21 05:11:35;;;;;;;7.22;7.13;;;20.40;99.90;;;;;;4198187;28;20263;-60
2023/08/21 05:13:56;;;;;;;8.07;7.68;;;20.40;99.90;;;;;;4197256;28;20116;-59
2023/08/21 05:16:16;;;;;;;6.68;6.47;;;20.30;99.90;;;;;;4197751;28;20116;-59
2023/08/21 05:18:36;;;;;;;6.70;6.38;;;20.30;99.90;;;;;;4195748;28;20051;-60
2023/08/21 05:20:56;;;;;;;7.22;7.05;;;20.30;99.90;;;;;;4198352;28;20047;-60
2023/08/21 05:23:17;;;;;;;7.28;6.95;;;20.30;99.90;;;;;;4197975;28;20052;-60
2023/08/21 05:25:36;;;;;;;7.22;7.13;;;20.40;99.90;;;;;;4197379;28;20044;-60
2023/08/21 05:27:56;;;;;;;5.70;5.60;;;20.40;99.90;;;;;;4199053;28;20051;-60
2023/08/21 05:30:16;;;;;;;6.13;5.82;;;20.40;99.90;;;;;;4197715;28;20086;-60
2023/08/21 05:32:36;;;;;;;7.30;7.00;;;20.50;99.90;;;;;;4196708;28;20271;-60
2023/08/21 05:34:56;;;;;;;6.45;6.32;;;20.70;99.90;;;;;;4199498;28;20056;-60
2023/08/21 05:37:16;;;;;;;7.43;7.13;;;20.80;99.90;;;;;;4198177;28;20091;-60
2023/08/21 05:39:35;;;;;;;6.20;6.00;;;20.80;99.90;;;;;;4203861;28;20296;-60
2023/08/21 05:41:55;;;;;;;6.72;6.53;;;20.80;99.90;;;;;;4196867;28;20266;-60
2023/08/21 05:44:15;;;;;;;7.18;6.57;;;20.80;99.90;;;;;;4198176;28;20115;-60
2023/08/21 05:46:35;;;;;;;7.43;7.25;;;20.80;99.90;;;;;;4195406;28;20051;-60
2023/08/21 05:48:55;;;;;;;8.25;7.75;;;20.90;99.90;;;;;;4196331;28;20047;-60
2023/08/21 05:51:15;;;;;;;7.50;7.10;;;21.00;99.90;;;;;;4190426;28;20043;-60
2023/08/21 05:53:35;;;;;;;7.72;7.50;;;20.90;99.90;;;;;;4199193;28;20052;-60
2023/08/21 05:55:55;;;;;;;7.10;7.00;;;21.00;99.90;;;;;;4197659;28;20051;-60
2023/08/21 05:58:15;;;;;;;6.97;6.78;;;21.00;99.90;;;;;;4196427;28;20060;-60
2023/08/21 06:00:35;;;;;;;7.22;6.68;;;21.20;99.90;;;;;;4197738;28;20096;-60
2023/08/21 06:02:55;;;;;;;8.07;7.78;;;21.50;99.90;;;;;;4197904;28;20130;-60
2023/08/21 06:05:15;;;;;;;7.63;7.30;;;21.50;99.90;;;;;;4198585;28;20130;-60
2023/08/21 06:07:36;;;;;;;7.80;7.53;;;21.50;99.90;;;;;;4197378;28;20224;-60
2023/08/21 06:09:56;;;;;;;7.85;7.55;;;21.80;99.90;;;;;;4196246;28;20048;-60
2023/08/21 06:12:16;;;;;;;6.88;6.60;;;22.20;99.90;;;;;;4196942;28;20147;-60
2023/08/21 06:14:36;;;;;;;6.82;6.45;;;22.50;99.90;;;;;;4198835;28;20115;-61
2023/08/21 06:16:57;;;;;;;6.22;5.82;;;22.30;99.90;;;;;;4200184;28;20150;-60
2023/08/21 06:19:17;;;;;;;6.28;6.18;;;22.20;99.90;;;;;;4195228;28;20077;-60
2023/08/21 06:21:37;;;;;;;6.60;6.05;;;22.20;99.90;;;;;;4194435;28;20315;-61
2023/08/21 06:23:57;;;;;;;6.85;6.45;;;22.40;99.90;;;;;;4195435;28;20067;-60
2023/08/21 06:26:18;;;;;;;5.45;5.18;;;22.70;99.90;;;;;;4197252;28;20048;-60
2023/08/21 06:28:38;;;;;;;5.43;5.22;;;23.00;99.90;;;;;;4197016;28;20064;-60
2023/08/21 06:30:58;;;;;;;5.80;5.55;;;23.40;99.90;;;;;;4198583;28;20108;-60
2023/08/21 06:33:18;;;;;;;6.20;5.65;;;23.50;99.90;;;;;;4198401;28;20052;-61
2023/08/21 06:35:38;;;;;;;6.07;5.88;;;23.50;99.90;;;;;;4197938;28;20040;-60
2023/08/21 06:37:58;;;;;;;6.35;5.75;;;23.60;99.90;;;;;;4196630;28;20100;-60
2023/08/21 06:40:18;;;;;;;5.10;5.00;;;24.10;99.90;;;;;;4197935;28;20114;-60
2023/08/21 06:42:38;;;;;;;5.95;5.50;;;24.30;99.90;;;;;;4195660;28;20112;-61
2023/08/21 06:44:58;;;;;;;5.07;4.47;;;24.60;99.90;;;;;;4195089;28;20082;-61
2023/08/21 06:47:18;;;;;;;4.43;4.05;;;25.00;99.90;;;;;;4193654;28;20082;-61
2023/08/21 06:49:37;;;;;;;5.72;5.43;;;25.20;99.90;;;;;;4197249;28;20248;-60
2023/08/21 06:51:58;;;;;;;3.53;3.33;;;25.50;99.90;;;;;;4195282;28;20051;-60
2023/08/21 06:54:17;;;;;;;5.40;4.70;;;25.70;99.90;;;;;;4195308;28;20056;-60
2023/08/21 06:56:38;;;;;;;4.40;4.20;;;25.90;99.90;;;;;;4197953;28;20086;-60
2023/08/21 06:58:58;;;;;;;3.72;3.45;;;26.00;99.90;;;;;;4196642;28;20102;-60
2023/08/21 07:01:17;;;;;;;3.60;3.35;;;26.00;99.90;;;;;;4197447;28;20421;-60
2023/08/21 07:03:38;;;;;;;4.05;3.85;;;26.10;99.90;;;;;;4196416;28;20082;-60
2023/08/21 07:05:59;;;;;;;3.58;3.47;;;26.10;99.90;;;;;;4195910;28;20048;-58
2023/08/21 07:08:19;;;;;;;4.05;3.80;;;26.30;99.90;;;;;;4197822;28;20271;-58
2023/08/21 07:10:39;;;;;;;4.68;4.32;;;26.30;99.90;;;;;;4195226;28;20051;-58
2023/08/21 07:12:59;;;;;;;4.95;3.03;;;26.30;99.90;;;;;;4197695;28;20067;-57
2023/08/21 07:15:19;;;;;;;8.23;3.88;;;26.20;99.90;;;;;;4195633;28;20144;-58
2023/08/21 07:17:39;;;;;;;3.38;3.13;;;26.20;99.90;;;;;;4195366;28;20048;-57
2023/08/21 07:19:58;;;;;;;4.07;3.97;;;26.60;99.90;;;;;;4199283;28;20235;-58
2023/08/21 07:22:20;;;;;;;5.00;3.25;;;26.60;99.90;;;;;;4194744;28;20103;-58
2023/08/21 07:24:40;;;;;;;3.45;3.17;;;26.70;99.90;;;;;;4196177;28;20353;-58
2023/08/21 07:27:00;;;;;;;2.97;2.72;;;27.00;99.90;;;;;;4201909;28;20310;-58
2023/08/21 07:29:20;;;;;;;2.95;2.85;;;27.20;99.90;;;;;;4197578;28;20113;-59
2023/08/21 07:31:40;;;;;;;2.80;2.70;;;27.40;99.20;;;;;;4197478;28;20040;-58
2023/08/21 07:34:00;;;;;;;3.33;3.22;;;27.60;99.30;;;;;;4196824;28;20236;-58
2023/08/21 07:36:20;;;;;;;2.58;2.47;;;27.70;99.90;;;;;;4196637;28;20450;-58
2023/08/21 07:38:41;;;;;;;3.08;2.97;;;27.60;99.70;;;;;;4198453;28;20060;-58
2023/08/21 07:41:07;;;;;;;2.63;2.40;;;27.80;99.70;;;;;;4192742;28;20375;-58
2023/08/21 07:43:27;;;;;;;2.08;1.98;;;27.80;98.20;;;;;;4199266;28;20094;-57
2023/08/21 07:45:46;;;;;;;3.38;2.85;;;27.80;97.10;;;;;;4193039;28;20052;-57
2023/08/21 07:48:07;;;;;;;2.53;2.35;;;27.80;97.10;;;;;;4194037;28;20106;-57
2023/08/21 07:50:34;;;;;;;2.25;2.03;;;28.10;97.40;;;;;;4201503;28;20094;-58
2023/08/21 07:52:54;;;;;;;4.38;2.55;;;28.10;97.00;;;;;;4194816;28;20052;-58
2023/08/21 07:55:13;;;;;;;2.08;2.08;;;28.30;98.00;;;;;;4196388;28;20539;-58
2023/08/21 07:57:33;;;;;;;1.85;1.75;;;28.40;95.80;;;;;;4198553;28;20052;-58
2023/08/21 07:59:53;;;;;;;4.60;1.70;;;28.50;95.70;;;;;;4196204;28;20340;-58
2023/08/21 08:02:15;;;;;;;2.20;1.98;;;28.70;95.80;;;;;;4202044;28;20098;-58
2023/08/21 08:04:35;;;;;;;2.45;2.20;;;28.70;95.00;;;;;;4193075;28;20068;-58
2023/08/21 08:06:55;;;;;;;2.45;1.80;;;28.50;94.40;;;;;;4199491;28;20059;-58
2023/08/21 08:09:15;;;;;;;1.90;1.80;;;28.60;94.50;;;;;;4196207;28;20048;-58
2023/08/21 08:11:35;;;;;;;9.15;1.92;;;28.50;94.40;;;;;;4195506;28;20067;-58
2023/08/21 08:13:56;;;;;;;1.80;1.70;;;28.50;94.30;;;;;;4193238;28;20069;-58
2023/08/21 08:16:16;;;;;;;3.50;2.47;;;28.50;95.00;;;;;;4192276;28;20055;-58
2023/08/21 08:18:36;;;;;;;1.52;1.52;;;28.90;94.30;;;;;;4197504;28;20047;-57
2023/08/21 08:20:56;;;;;;;1.90;1.80;;;28.90;93.20;;;;;;4190636;28;20047;-57
2023/08/21 08:23:17;;;;;;;1.83;1.73;;;28.90;93.60;;;;;;4195171;28;20101;-58
2023/08/21 08:25:39;;;;;;;2.83;1.60;;;28.90;92.90;;;;;;4201052;28;20063;-58
2023/08/21 08:27:59;;;;;;;1.75;1.75;;;29.10;93.60;;;;;;4197388;28;20060;-57
2023/08/21 08:30:19;;;;;;;3.42;1.85;;;29.20;94.00;;;;;;4195441;28;20236;-57
2023/08/21 08:32:44;;;;;;;4.60;2.15;;;29.20;92.50;;;;;;4194515;28;20075;-58
2023/08/21 08:35:05;;;;;;;2.33;1.85;;;29.00;92.30;;;;;;4197823;28;20099;-58
2023/08/21 08:37:25;;;;;;;1.83;1.73;;;29.00;93.20;;;;;;4197678;28;20087;-58
2023/08/21 08:39:48;;;;;;;3.55;1.67;;;29.20;92.90;;;;;;4195166;28;20079;-57
2023/08/21 08:42:08;;;;;;;1.67;1.67;;;29.20;92.10;;;;;;4200509;28;20064;-58
2023/08/21 08:44:29;;;;;;;2.38;1.88;;;29.20;92.40;;;;;;4196434;28;20098;-57
2023/08/21 08:46:51;;;;;;;3.63;1.45;;;29.30;92.20;;;;;;4198929;28;20052;-58
2023/08/21 08:49:12;;;;;;;1.40;1.40;;;29.50;92.40;;;;;;4204592;28;20059;-57
2023/08/21 08:51:34;;;;;;;5.88;2.10;;;29.50;92.20;;;;;;4195124;28;20056;-58
2023/08/21 08:53:55;;;;;;;1.90;1.80;;;29.40;91.60;;;;;;4198381;28;20443;-57
2023/08/21 08:56:15;;;;;;;2.75;1.30;;;29.70;92.20;;;;;;4199448;28;20048;-57
2023/08/21 08:58:36;;;;;;;1.30;1.30;;;29.80;91.60;;;;;;4199070;28;20062;-58
2023/08/21 09:00:55;;;;;;;2.25;1.48;;;29.90;91.60;;;;;;4197868;28;20067;-57
2023/08/21 09:03:16;;;;;;;2.92;1.27;;;29.80;91.30;;;;;;4196782;28;20116;-58
2023/08/21 09:05:36;;;;;;;1.52;1.42;;;29.90;91.60;;;;;;4195274;28;20067;-57
2023/08/21 09:08:06;;;;;;;1.42;1.17;;;30.10;91.70;;;;;;4196697;28;20285;-57
2023/08/21 09:10:26;;;;;;;2.20;1.40;;;30.20;91.40;;;;;;4198113;28;20060;-57
2023/08/21 09:12:46;;;;;;;1.15;1.13;;;30.30;91.10;;;;;;4200694;28;20048;-57
2023/08/21 09:15:08;;;;;;;1.67;1.17;;;30.60;90.70;;;;;;4196737;28;20275;-58
2023/08/21 09:17:28;;;;;;;2.28;1.10;;;30.60;90.80;;;;;;4198438;28;20087;-58
2023/08/21 09:19:48;;;;;;;1.27;1.27;;;30.70;91.10;;;;;;4196811;28;20055;-58
2023/08/21 09:22:14;;;;;;;1.50;1.40;;;30.70;90.40;;;;;;4197952;28;20059;-58
2023/08/21 09:24:33;;;;;;;1.65;1.58;;;30.80;90.60;;;;;;4199108;28;20067;-58
2023/08/21 09:26:54;;;;;;;2.00;1.33;;;30.90;90.70;;;;;;4198154;28;20040;-58
2023/08/21 09:29:14;;;;;;;2.75;1.58;;;31.00;90.50;;;;;;4198278;28;20112;-58
2023/08/21 09:31:36;;;;;;;2.15;1.30;;;31.10;88.80;;;;;;4197041;28;20047;-58
2023/08/21 09:34:04;;;;;;;2.45;1.20;;;31.10;90.30;;;;;;4197949;28;20083;-58
2023/08/21 09:36:24;;;;;;;4.10;1.45;;;31.50;90.60;;;;;;4195627;28;20382;-58
2023/08/21 09:38:46;;;;;;;2.47;1.10;;;31.70;89.40;;;;;;4195708;28;20046;-58
2023/08/21 09:41:07;;;;;;;1.83;1.60;;;31.90;89.60;;;;;;4200967;28;20054;-58
2023/08/21 09:43:27;;;;;;;1.88;1.30;;;32.30;89.60;;;;;;4195168;28;20086;-58
2023/08/21 09:45:49;;;;;;;1.02;1.02;;;32.50;88.10;;;;;;4197626;28;20048;-58
2023/08/21 09:48:09;;;;;;;1.38;1.30;;;32.30;87.60;;;;;;4197349;28;20071;-58
2023/08/21 09:50:30;;;;;;;3.65;1.48;;;32.30;87.20;;;;;;4197363;28;20453;-57
2023/08/21 09:52:51;;;;;;;2.08;1.20;;;32.30;90.00;;;;;;4198754;28;20043;-58
2023/08/21 09:55:13;;;;;;;1.92;1.00;;;32.40;87.10;;;;;;4198775;28;20040;-58
2023/08/21 09:57:35;;;;;;;1.10;1.10;;;32.60;87.30;;;;;;4197491;28;20094;-58
2023/08/21 09:59:56;;;;;;;1.00;1.00;;;32.90;88.30;;;;;;4196627;28;20043;-57
2023/08/21 10:02:15;;;;;;;1.52;1.15;;;33.20;84.20;;;;;;4197769;28;20083;-58
2023/08/21 10:04:37;;;;;;;6.28;1.00;;;33.10;84.40;;;;;;4199297;28;20050;-58
2023/08/21 10:06:58;;;;;;;;;;;33.20;84.30;;;;;;4198162;28;20044;-58
2023/08/21 10:09:18;;;;;;;1.75;0.95;;;33.10;83.30;;;;;;4196915;28;20153;-58
2023/08/21 10:11:38;;;;;;;1.30;0.90;;;33.10;80.90;;;;;;4194954;28;20081;-58
2023/08/21 10:13:58;;;;;;;4.35;1.00;;;33.10;83.70;;;;;;4195693;28;20123;-57
2023/08/21 10:16:21;;;;;;;2.67;1.20;;;32.80;80.40;;;;;;4196869;28;20098;-58
2023/08/21 10:18:48;;;;;;;1.42;1.00;;;32.80;83.20;;;;;;4197487;28;20052;-58
2023/08/21 10:21:18;;;;;;;1.35;1.00;;;33.20;83.00;;;;;;4197025;28;20240;-58
2023/08/21 10:23:39;;;;;;;2.35;1.05;;;33.10;82.60;;;;;;4198625;28;20074;-58
2023/08/21 10:26:07;;;;;;;1.80;1.10;;;33.00;81.80;;;;;;4197600;28;20055;-58
2023/08/21 10:28:42;;;;;;;2.28;1.10;;;33.20;81.30;;;;;;4199117;28;20080;-58
2023/08/21 10:31:28;;;;;;;2.15;1.00;;;33.40;82.40;;;;;;4195655;28;20047;-58
2023/08/21 10:33:48;;;;;;;2.05;1.20;;;33.40;79.40;;;;;;4196795;28;20051;-58
2023/08/21 10:36:10;;;;;;;0.90;0.90;;;33.20;82.30;;;;;;4193940;28;20079;-58
2023/08/21 10:38:30;;;;;;;1.20;1.08;;;33.30;80.40;;;;;;4197852;28;20086;-58
2023/08/21 10:41:07;;;;;;;1.35;0.80;;;33.40;80.20;;;;;;4196655;28;20060;-57
2023/08/21 10:43:46;;;;;;;0.90;0.90;;;33.60;79.10;;;;;;4196516;28;20110;-58
2023/08/21 10:46:07;;;;;;;1.90;0.80;;;33.60;78.20;;;;;;4198184;28;20040;-58
2023/08/21 10:48:27;;;;;;;0.90;0.90;;;33.70;78.30;;;;;;4196354;28;20051;-58
2023/08/21 10:50:47;;;;;;;2.85;1.25;;;34.00;78.90;;;;;;4196985;28;20047;-58
2023/08/21 10:53:07;;;;;;;1.10;0.90;;;34.10;77.70;;;;;;4196396;28;20086;-58
2023/08/21 10:55:29;;;;;;;1.10;1.00;;;34.10;77.70;;;;;;4196812;28;20043;-58
2023/08/21 10:57:49;;;;;;;1.27;1.27;;;34.10;77.30;;;;;;4196009;28;20064;-58
2023/08/21 11:00:17;;;;;;;2.00;1.08;;;33.80;76.50;;;;;;4192610;28;20064;-58
2023/08/21 11:02:41;;;;;;;1.58;0.93;;;33.50;76.80;;;;;;4197023;28;20048;-58
2023/08/21 11:05:05;;;;;;;3.33;1.35;;;33.50;76.50;;;;;;4198253;28;20035;-58
2023/08/21 11:07:27;;;;;;;0.90;0.90;;;33.60;78.30;;;;;;4195186;28;20365;-58
2023/08/21 11:09:48;;;;;;;2.28;1.00;;;33.60;76.40;;;;;;4199967;28;20044;-57
2023/08/21 11:12:10;;;;;;;1.42;1.13;;;33.30;75.60;;;;;;4196864;28;20109;-58
2023/08/21 11:14:29;;;;;;;0.80;0.80;;;33.40;76.30;;;;;;4195819;28;20071;-58
2023/08/21 11:16:49;;;;;;;1.95;0.85;;;33.50;77.90;;;;;;4200228;28;20105;-58
2023/08/21 11:19:09;;;;;;;0.90;0.90;;;33.50;76.50;;;;;;4197495;28;20060;-58
2023/08/21 11:21:29;;;;;;;1.08;0.82;;;33.20;75.70;;;;;;4197522;28;20090;-58
2023/08/21 11:23:49;;;;;;;1.33;0.90;;;33.10;76.30;;;;;;4196245;28;20052;-58
2023/08/21 11:26:12;;;;;;;3.47;1.08;;;33.10;75.00;;;;;;4196594;28;20303;-58
2023/08/21 11:28:41;;;;;;;6.30;1.90;;;33.20;76.90;;;;;;4198819;28;20423;-58
2023/08/21 11:31:01;;;;;;;2.33;0.90;;;33.10;76.40;;;;;;4193431;28;20044;-58
2023/08/21 11:33:22;;;;;;;2.33;1.05;;;33.10;78.00;;;;;;4199462;28;20240;-58
2023/08/21 11:35:42;;;;;;;1.00;0.90;;;33.30;79.70;;;;;;4194220;28;20374;-57
2023/08/21 11:38:03;;;;;;;1.98;0.90;;;33.70;74.20;;;;;;4196141;28;20292;-58
2023/08/21 11:40:23;;;;;;;3.53;1.00;;;33.50;74.50;;;;;;4202471;28;20048;-59
2023/08/21 11:42:43;;;;;;;1.60;0.90;;;33.30;74.40;;;;;;4195616;28;20059;-59
2023/08/21 11:45:03;;;;;;;2.40;0.90;;;33.90;75.20;;;;;;4195392;28;20079;-59
2023/08/21 11:47:29;;;;;;;1.10;0.90;;;34.10;75.00;;;;;;4199571;28;20085;-59
2023/08/21 11:49:50;;;;;;;0.80;0.80;;;34.30;75.30;;;;;;4196382;28;20051;-59
2023/08/21 11:52:11;;;;;;;0.93;0.90;;;34.00;73.70;;;;;;4195865;28;20087;-59
2023/08/21 11:54:36;;;;;;;1.60;0.90;;;33.90;74.70;;;;;;4195649;28;20298;-58
2023/08/21 11:56:55;;;;;;;2.58;0.80;;;34.30;76.00;;;;;;4196043;28;20052;-58
2023/08/21 11:59:22;;;;;;;2.30;0.90;;;33.90;74.70;;;;;;4192596;28;20051;-58
2023/08/21 12:01:42;;;;;;;0.80;0.80;;;34.10;75.20;;;;;;4193026;28;20094;-58
2023/08/21 12:04:15;;;;;;;2.60;0.80;;;34.10;74.10;;;;;;4193483;28;20051;-58
2023/08/21 12:06:35;;;;;;;;;;;34.40;75.10;;;;;;4194558;28;20387;-58
2023/08/21 12:08:55;;;;;;;6.45;1.38;;;34.50;74.70;;;;;;4194675;28;19931;-59
2023/08/21 12:11:15;;;;;;;2.80;1.00;;;34.10;75.20;;;;;;4191257;28;20051;-58
2023/08/21 12:13:35;;;;;;;1.40;0.80;;;34.30;75.80;;;;;;4197866;28;20083;-58
2023/08/21 12:15:56;;;;;;;5.28;0.80;;;34.40;72.60;;;;;;4196568;28;20120;-59